Time;durP1;ratioP1;P1;durP2;ratioP2;P2;SDS_P1;SDS_P2;PMS_P1;PMS_P2;Temp;Humidity;BMP_temperature;BMP_pressure;BME280_temperature;BME280_humidity;BME280_pressure;Samples;Min_cycle;Max_cycle;Signal;HPM_P1;HPM_P2
2023/03/12 00:02:09;;;;;;;14.77;7.53;;;;;;;;;;4977353;28;20034;-66
2023/03/12 00:04:35;;;;;;;20.05;8.23;;;;;;;;;;4970319;28;20507;-66
2023/03/12 00:07:02;;;;;;;10.38;7.03;;;;;;;;;;4970472;28;20238;-67
2023/03/12 00:09:28;;;;;;;12.25;7.63;;;;;;;;;;4973870;28;20125;-67
2023/03/12 00:11:53;;;;;;;10.70;6.60;;;;;;;;;;4970876;28;20126;-67
2023/03/12 00:14:19;;;;;;;12.10;7.32;;;;;;;;;;4970579;28;20129;-67
2023/03/12 00:16:45;;;;;;;6.13;5.43;;;;;;;;;;4970841;28;20046;-67
2023/03/12 00:19:12;;;;;;;10.70;7.70;;;;;;;;;;4970817;28;20512;-67
2023/03/12 00:21:38;;;;;;;9.82;6.38;;;;;;;;;;4970955;28;20035;-67
2023/03/12 00:24:04;;;;;;;10.75;6.43;;;;;;;;;;4971597;28;20609;-65
2023/03/12 00:26:30;;;;;;;8.45;6.35;;;;;;;;;;4972199;28;20040;-65
2023/03/12 00:28:55;;;;;;;11.68;7.68;;;;;;;;;;4972707;28;20039;-66
2023/03/12 00:31:26;;;;;;;8.00;5.82;;;;;;;;;;4969904;28;20049;-65
2023/03/12 00:33:53;;;;;;;21.38;8.10;;;;;;;;;;4984800;28;20668;-65
2023/03/12 00:36:23;;;;;;;10.15;6.97;;;;;;;;;;4967258;28;20042;-65
2023/03/12 00:38:52;;;;;;;5.00;4.55;;;;;;;;;;4972215;28;20034;-66
2023/03/12 00:41:19;;;;;;;16.70;6.43;;;;;;;;;;4967581;28;20039;-65
2023/03/12 00:43:46;;;;;;;7.80;4.75;;;;;;;;;;4970614;28;20729;-65
2023/03/12 00:46:12;;;;;;;12.13;7.07;;;;;;;;;;4971520;28;20038;-66
2023/03/12 00:48:38;;;;;;;11.05;6.53;;;;;;;;;;4985686;28;20054;-65
2023/03/12 00:51:04;;;;;;;9.60;6.10;;;;;;;;;;4971928;28;20043;-67
2023/03/12 00:53:29;;;;;;;4.10;3.80;;;;;;;;;;4970989;28;20584;-66
2023/03/12 00:55:55;;;;;;;14.00;6.95;;;;;;;;;;4969911;28;20138;-65
2023/03/12 00:58:21;;;;;;;11.40;5.05;;;;;;;;;;4971873;28;20030;-65
2023/03/12 01:00:46;;;;;;;14.55;7.47;;;;;;;;;;4959635;28;20085;-65
2023/03/12 01:03:13;;;;;;;14.95;8.15;;;;;;;;;;4975121;28;20092;-65
2023/03/12 01:05:39;;;;;;;5.22;3.75;;;;;;;;;;4986339;28;20042;-65
2023/03/12 01:08:07;;;;;;;20.10;8.40;;;;;;;;;;4955044;28;20070;-65
2023/03/12 01:10:34;;;;;;;8.85;6.18;;;;;;;;;;4971753;28;20562;-65
2023/03/12 01:12:59;;;;;;;10.60;7.15;;;;;;;;;;4975345;28;20038;-66
2023/03/12 01:15:26;;;;;;;12.27;7.32;;;;;;;;;;4978919;28;20035;-65
2023/03/12 01:17:52;;;;;;;12.32;6.60;;;;;;;;;;4969520;28;20398;-67
2023/03/12 01:20:18;;;;;;;17.90;3.92;;;;;;;;;;4969992;28;20558;-65
2023/03/12 01:22:44;;;;;;;8.65;6.32;;;;;;;;;;4974790;28;20431;-67
2023/03/12 01:25:10;;;;;;;8.88;5.32;;;;;;;;;;4976284;28;20054;-66
2023/03/12 01:27:36;;;;;;;7.05;5.72;;;;;;;;;;4966555;28;20039;-65
2023/03/12 01:30:03;;;;;;;4.30;3.88;;;;;;;;;;4968617;28;20409;-68
2023/03/12 01:32:29;;;;;;;2.20;2.13;;;;;;;;;;4979778;28;20042;-66
2023/03/12 01:34:55;;;;;;;10.68;5.43;;;;;;;;;;4969138;28;20037;-65
2023/03/12 01:37:20;;;;;;;16.10;8.32;;;;;;;;;;4977052;28;20030;-66
2023/03/12 01:39:46;;;;;;;16.98;8.45;;;;;;;;;;4986315;28;20042;-66
2023/03/12 01:42:11;;;;;;;7.63;6.13;;;;;;;;;;4970677;28;20081;-65
2023/03/12 01:45:01;;;;;;;7.80;5.03;;;;;;;;;;4985505;28;20685;-65
2023/03/12 01:47:32;;;;;;;10.73;6.78;;;;;;;;;;4986637;28;20049;-66
2023/03/12 01:50:02;;;;;;;12.75;6.93;;;;;;;;;;4975124;28;20039;-65
2023/03/12 01:52:32;;;;;;;10.30;6.28;;;;;;;;;;4953073;28;20383;-65
2023/03/12 01:55:10;;;;;;;9.18;6.03;;;;;;;;;;4970261;28;20026;-66
2023/03/12 01:57:50;;;;;;;12.95;6.47;;;;;;;;;;4971171;28;20085;-65
2023/03/12 02:00:25;;;;;;;11.45;6.63;;;;;;;;;;4951866;28;20573;-66
2023/03/12 02:02:58;;;;;;;4.07;3.72;;;;;;;;;;4969323;28;20046;-65
2023/03/12 02:05:33;;;;;;;4.10;3.78;;;;;;;;;;4970777;28;20057;-65
2023/03/12 02:07:59;;;;;;;8.00;6.18;;;;;;;;;;4980994;28;20049;-65
2023/03/12 02:10:25;;;;;;;8.65;5.78;;;;;;;;;;4987879;28;20038;-65
2023/03/12 02:12:52;;;;;;;11.05;6.72;;;;;;;;;;4971167;28;20034;-67
2023/03/12 02:15:18;;;;;;;11.18;5.80;;;;;;;;;;4984533;28;20668;-65
2023/03/12 02:17:45;;;;;;;5.53;4.75;;;;;;;;;;4967295;28;20039;-66
2023/03/12 02:20:32;;;;;;;10.60;7.25;;;;;;;;;;4968402;28;20043;-67
2023/03/12 02:23:10;;;;;;;5.57;3.88;;;;;;;;;;4980269;28;20042;-67
2023/03/12 02:25:42;;;;;;;9.98;5.53;;;;;;;;;;4985434;28;20046;-66
2023/03/12 02:28:13;;;;;;;6.95;5.25;;;;;;;;;;4975071;28;20070;-65
2023/03/12 02:30:42;;;;;;;7.00;5.72;;;;;;;;;;4983564;28;20141;-66
2023/03/12 02:33:08;;;;;;;12.70;6.50;;;;;;;;;;4970616;28;20482;-66
2023/03/12 02:35:34;;;;;;;8.60;6.40;;;;;;;;;;4969415;28;20937;-66
2023/03/12 02:38:00;;;;;;;13.30;7.03;;;;;;;;;;4977154;28;20666;-66
2023/03/12 02:40:44;;;;;;;11.98;6.72;;;;;;;;;;4984532;28;20034;-66
2023/03/12 02:47:10;;;;;;;8.52;6.25;;;;;;;;;;4961370;28;20045;-66
2023/03/12 02:49:36;;;;;;;6.80;4.88;;;;;;;;;;4969179;28;20038;-65
2023/03/12 02:52:03;;;;;;;6.07;4.88;;;;;;;;;;4990257;28;20101;-66
2023/03/12 02:54:29;;;;;;;11.88;6.13;;;;;;;;;;4969803;28;20045;-65
2023/03/12 02:56:57;;;;;;;7.30;5.00;;;;;;;;;;4969257;28;20394;-66
2023/03/12 02:59:25;;;;;;;11.45;7.03;;;;;;;;;;4984187;28;20702;-66
2023/03/12 03:01:58;;;;;;;13.10;6.60;;;;;;;;;;4957141;28;20043;-66
2023/03/12 03:04:25;;;;;;;13.60;6.80;;;;;;;;;;4956236;28;20074;-68
2023/03/12 03:06:51;;;;;;;9.82;6.75;;;;;;;;;;4984518;28;20482;-66
2023/03/12 03:09:18;;;;;;;13.68;7.32;;;;;;;;;;4981561;28;20047;-66
2023/03/12 03:11:44;;;;;;;9.88;5.18;;;;;;;;;;4974348;28;20046;-66
2023/03/12 03:14:10;;;;;;;11.13;6.88;;;;;;;;;;4974792;28;20049;-66
2023/03/12 03:16:36;;;;;;;6.53;4.65;;;;;;;;;;4984406;28;20046;-66
2023/03/12 03:19:02;;;;;;;4.00;3.22;;;;;;;;;;4972866;28;20721;-67
2023/03/12 03:21:28;;;;;;;11.85;6.00;;;;;;;;;;4968679;28;20668;-67
2023/03/12 03:23:54;;;;;;;15.32;3.90;;;;;;;;;;4971865;28;20042;-67
2023/03/12 03:26:22;;;;;;;2.33;2.22;;;;;;;;;;4970701;28;20042;-67
2023/03/12 03:28:48;;;;;;;6.47;5.07;;;;;;;;;;4967825;28;20511;-66
2023/03/12 03:31:15;;;;;;;6.50;4.68;;;;;;;;;;4967206;28;20121;-67
2023/03/12 03:33:42;;;;;;;7.60;5.72;;;;;;;;;;4975197;28;20050;-67
2023/03/12 03:36:10;;;;;;;20.02;3.90;;;;;;;;;;4967216;28;20035;-67
2023/03/12 03:38:45;;;;;;;4.35;4.05;;;;;;;;;;4993848;28;20042;-67
2023/03/12 03:41:11;;;;;;;8.85;5.65;;;;;;;;;;4978271;28;20038;-67
2023/03/12 03:43:41;;;;;;;7.90;5.40;;;;;;;;;;4957935;28;20528;-67
2023/03/12 03:46:10;;;;;;;12.13;5.75;;;;;;;;;;4968942;28;20030;-67
2023/03/12 03:48:40;;;;;;;8.75;5.57;;;;;;;;;;4983658;28;20035;-66
2023/03/12 03:51:08;;;;;;;5.75;4.53;;;;;;;;;;4975772;28;20046;-67
2023/03/12 03:53:35;;;;;;;4.20;3.87;;;;;;;;;;4966411;28;20042;-67
2023/03/12 03:56:09;;;;;;;7.80;4.63;;;;;;;;;;4967468;28;20290;-67
2023/03/12 03:58:37;;;;;;;10.68;6.18;;;;;;;;;;4975598;28;20045;-67
2023/03/12 04:01:03;;;;;;;5.82;4.78;;;;;;;;;;4985594;28;20042;-67
2023/03/12 04:03:29;;;;;;;11.32;6.85;;;;;;;;;;4968560;28;20042;-67
2023/03/12 04:05:58;;;;;;;10.90;7.00;;;;;;;;;;4972143;28;20042;-67
2023/03/12 04:08:23;;;;;;;10.82;7.15;;;;;;;;;;4969931;28;20428;-66
2023/03/12 04:10:49;;;;;;;4.57;4.05;;;;;;;;;;4969919;28;20039;-68
2023/03/12 04:13:15;;;;;;;10.40;6.40;;;;;;;;;;4968867;28;20047;-68
2023/03/12 04:15:49;;;;;;;3.22;3.03;;;;;;;;;;4985150;28;20112;-66
2023/03/12 04:18:16;;;;;;;7.22;6.03;;;;;;;;;;4979964;28;20045;-66
2023/03/12 04:20:42;;;;;;;4.45;3.88;;;;;;;;;;4970918;28;20078;-68
2023/03/12 04:23:08;;;;;;;6.78;5.95;;;;;;;;;;4970966;28;20042;-68
2023/03/12 04:25:34;;;;;;;10.00;6.13;;;;;;;;;;4974226;28;20560;-69
2023/03/12 04:28:00;;;;;;;7.68;5.22;;;;;;;;;;4969237;28;20117;-68
2023/03/12 04:30:27;;;;;;;7.05;4.80;;;;;;;;;;4971113;28;20106;-67
2023/03/12 04:32:52;;;;;;;6.32;4.45;;;;;;;;;;4985402;28;20176;-67
2023/03/12 04:35:19;;;;;;;3.50;3.20;;;;;;;;;;4969114;28;20086;-66
2023/03/12 04:37:44;;;;;;;10.82;5.50;;;;;;;;;;4971875;28;20046;-68
2023/03/12 04:40:11;;;;;;;8.50;5.85;;;;;;;;;;4985132;28;20560;-68
2023/03/12 04:42:37;;;;;;;4.38;3.92;;;;;;;;;;4983135;28;20047;-67
2023/03/12 04:45:05;;;;;;;3.47;3.15;;;;;;;;;;4963352;28;20054;-67
2023/03/12 04:47:32;;;;;;;6.78;5.18;;;;;;;;;;4986723;28;20486;-68
2023/03/12 04:49:58;;;;;;;3.88;3.58;;;;;;;;;;4970579;28;20129;-68
2023/03/12 04:52:25;;;;;;;5.18;4.50;;;;;;;;;;4968725;28;20045;-68
2023/03/12 04:54:52;;;;;;;8.85;5.05;;;;;;;;;;4969659;28;20529;-67
2023/03/12 04:57:18;;;;;;;5.70;3.85;;;;;;;;;;4971710;28;20120;-68
2023/03/12 04:59:44;;;;;;;6.22;5.03;;;;;;;;;;4970661;28;20042;-67
2023/03/12 05:02:10;;;;;;;7.35;4.47;;;;;;;;;;4978440;28;20049;-68
2023/03/12 05:04:35;;;;;;;12.65;6.13;;;;;;;;;;4974067;28;20502;-68
2023/03/12 05:07:02;;;;;;;9.60;5.68;;;;;;;;;;4968999;28;20066;-68
2023/03/12 05:09:27;;;;;;;6.50;5.40;;;;;;;;;;4972951;28;20037;-68
2023/03/12 05:11:54;;;;;;;10.52;5.47;;;;;;;;;;4979451;28;20469;-68
2023/03/12 05:14:20;;;;;;;7.20;5.15;;;;;;;;;;4980292;28;20445;-68
2023/03/12 05:16:47;;;;;;;5.75;3.97;;;;;;;;;;4968373;28;20502;-68
2023/03/12 05:19:13;;;;;;;6.57;4.30;;;;;;;;;;4971841;28;20045;-68
2023/03/12 05:21:41;;;;;;;7.97;5.55;;;;;;;;;;4970286;28;20105;-68
2023/03/12 05:24:08;;;;;;;8.32;4.75;;;;;;;;;;4972247;28;20041;-68
2023/03/12 05:26:34;;;;;;;10.95;5.68;;;;;;;;;;4969409;28;20047;-68
2023/03/12 05:29:07;;;;;;;12.10;5.03;;;;;;;;;;4970142;28;20035;-68
2023/03/12 05:31:34;;;;;;;5.55;3.63;;;;;;;;;;4978954;28;20033;-69
2023/03/12 05:34:02;;;;;;;8.15;4.20;;;;;;;;;;4977385;28;20050;-68
2023/03/12 05:36:27;;;;;;;10.02;6.55;;;;;;;;;;4971461;28;20039;-68
2023/03/12 05:38:53;;;;;;;4.85;4.35;;;;;;;;;;4968326;28;20034;-68
2023/03/12 05:41:21;;;;;;;10.00;5.32;;;;;;;;;;4973781;28;20038;-68
2023/03/12 05:43:48;;;;;;;17.80;12.40;;;;;;;;;;4971991;28;20113;-68
2023/03/12 05:46:14;;;;;;;9.18;6.72;;;;;;;;;;4966274;28;20134;-68
2023/03/12 05:48:40;;;;;;;10.23;6.38;;;;;;;;;;4968916;28;20043;-68
2023/03/12 05:51:06;;;;;;;20.13;15.48;;;;;;;;;;4970503;28;20105;-68
2023/03/12 05:53:32;;;;;;;4.97;2.97;;;;;;;;;;4971060;28;20523;-68
2023/03/12 05:56:03;;;;;;;8.27;5.57;;;;;;;;;;4975992;28;20039;-68
2023/03/12 05:58:30;;;;;;;6.43;5.07;;;;;;;;;;4974504;28;20030;-68
2023/03/12 06:00:55;;;;;;;12.13;5.85;;;;;;;;;;4999982;28;20034;-68
2023/03/12 06:03:22;;;;;;;9.20;5.65;;;;;;;;;;4970141;28;20109;-68
2023/03/12 06:05:47;;;;;;;10.27;5.20;;;;;;;;;;4973340;28;20064;-68
2023/03/12 06:08:13;;;;;;;9.15;6.32;;;;;;;;;;4976597;28;20638;-68
2023/03/12 06:10:39;;;;;;;12.68;6.40;;;;;;;;;;4970844;28;20039;-68
2023/03/12 06:13:06;;;;;;;7.93;6.40;;;;;;;;;;4984147;28;20084;-68
2023/03/12 06:15:31;;;;;;;11.68;6.15;;;;;;;;;;4969821;28;20038;-68
2023/03/12 06:17:57;;;;;;;10.02;6.13;;;;;;;;;;4975269;28;20049;-68
2023/03/12 06:20:23;;;;;;;7.47;5.82;;;;;;;;;;4977458;28;20039;-68
2023/03/12 06:22:48;;;;;;;4.63;4.18;;;;;;;;;;4997783;28;20057;-68
2023/03/12 06:25:14;;;;;;;11.27;6.35;;;;;;;;;;4984371;28;20046;-68
2023/03/12 06:27:41;;;;;;;8.48;6.15;;;;;;;;;;4956434;28;20043;-68
2023/03/12 06:30:07;;;;;;;11.38;5.10;;;;;;;;;;4970017;28;20026;-67
2023/03/12 06:32:33;;;;;;;8.25;4.90;;;;;;;;;;4981180;28;20046;-68
2023/03/12 06:35:03;;;;;;;7.38;6.00;;;;;;;;;;4973406;28;20410;-68
2023/03/12 06:37:29;;;;;;;7.50;5.70;;;;;;;;;;4969645;28;20046;-68
2023/03/12 06:39:54;;;;;;;6.68;4.78;;;;;;;;;;4977307;28;20568;-68
2023/03/12 06:42:21;;;;;;;2.78;2.67;;;;;;;;;;4981661;28;20109;-68
2023/03/12 06:44:47;;;;;;;8.68;5.00;;;;;;;;;;4969947;28;20030;-68
2023/03/12 06:47:13;;;;;;;8.02;4.82;;;;;;;;;;4968182;28;20038;-67
2023/03/12 06:49:39;;;;;;;12.95;5.97;;;;;;;;;;4965997;28;20428;-68
2023/03/12 06:52:04;;;;;;;7.85;5.22;;;;;;;;;;4970403;28;20043;-66
2023/03/12 06:54:30;;;;;;;11.75;6.28;;;;;;;;;;4968656;28;20050;-67
2023/03/12 06:56:58;;;;;;;8.70;6.95;;;;;;;;;;4968798;28;20039;-66
2023/03/12 06:59:24;;;;;;;9.05;5.38;;;;;;;;;;4984340;28;20490;-67
2023/03/12 07:01:50;;;;;;;6.78;5.05;;;;;;;;;;4974094;28;20042;-67
2023/03/12 07:04:15;;;;;;;6.70;4.80;;;;;;;;;;4979729;28;20045;-68
2023/03/12 07:06:41;;;;;;;7.65;6.15;;;;;;;;;;4968113;28;20523;-67
2023/03/12 07:09:07;;;;;;;6.68;5.13;;;;;;;;;;4968356;28;20039;-68
2023/03/12 07:11:32;;;;;;;10.30;6.85;;;;;;;;;;4974487;28;20038;-68
2023/03/12 07:13:58;;;;;;;13.55;6.78;;;;;;;;;;4975508;28;20519;-68
2023/03/12 07:16:23;;;;;;;10.40;5.97;;;;;;;;;;4969695;28;20191;-67
2023/03/12 07:18:49;;;;;;;8.20;7.07;;;;;;;;;;4968280;28;20548;-67
2023/03/12 07:21:21;;;;;;;3.92;3.55;;;;;;;;;;4984114;28;20039;-67
2023/03/12 07:23:50;;;;;;;12.95;5.68;;;;;;;;;;4962407;28;20042;-67
2023/03/12 07:26:16;;;;;;;5.25;4.55;;;;;;;;;;4968757;28;20129;-68
2023/03/12 07:28:42;;;;;;;6.60;5.40;;;;;;;;;;4970892;28;20034;-68
2023/03/12 07:31:07;;;;;;;11.98;7.10;;;;;;;;;;4975894;28;20854;-68
2023/03/12 07:33:33;;;;;;;8.95;5.93;;;;;;;;;;4980219;28;20548;-68
2023/03/12 07:35:59;;;;;;;4.68;4.15;;;;;;;;;;4973585;28;20116;-68
2023/03/12 07:38:25;;;;;;;8.90;6.70;;;;;;;;;;4970233;28;20744;-68
2023/03/12 07:40:52;;;;;;;9.55;6.82;;;;;;;;;;4968470;28;20047;-68
2023/03/12 07:43:19;;;;;;;10.30;6.82;;;;;;;;;;4971018;28;20517;-67
2023/03/12 07:45:46;;;;;;;8.75;6.57;;;;;;;;;;4974796;28;20180;-68
2023/03/12 07:48:11;;;;;;;8.77;6.28;;;;;;;;;;4977229;28;20114;-68
2023/03/12 07:50:37;;;;;;;11.05;7.53;;;;;;;;;;4968832;28;20046;-68
2023/03/12 07:53:04;;;;;;;18.35;10.65;;;;;;;;;;4972906;28;20043;-67
2023/03/12 07:55:30;;;;;;;24.55;15.57;;;;;;;;;;4972614;28;20035;-66
2023/03/12 07:57:57;;;;;;;40.90;18.85;;;;;;;;;;4971596;28;20121;-67
2023/03/12 08:00:24;;;;;;;25.85;13.55;;;;;;;;;;4969715;28;20147;-67
2023/03/12 08:02:50;;;;;;;18.38;11.68;;;;;;;;;;4970995;28;20034;-67
2023/03/12 08:05:15;;;;;;;14.52;8.63;;;;;;;;;;4971320;28;20097;-67
2023/03/12 08:07:41;;;;;;;11.60;8.10;;;;;;;;;;4970352;28;20043;-67
2023/03/12 08:10:09;;;;;;;10.13;7.72;;;;;;;;;;4968687;28;20510;-67
2023/03/12 08:12:36;;;;;;;11.18;8.60;;;;;;;;;;4969569;28;20049;-67
2023/03/12 08:15:03;;;;;;;14.68;8.88;;;;;;;;;;4970537;28;20066;-67
2023/03/12 08:17:29;;;;;;;11.63;7.10;;;;;;;;;;4971178;28;20069;-67
2023/03/12 08:19:54;;;;;;;5.47;4.85;;;;;;;;;;4971978;28;20649;-67
2023/03/12 08:22:20;;;;;;;13.68;6.55;;;;;;;;;;4971902;28;20055;-67
2023/03/12 08:24:46;;;;;;;6.10;5.50;;;;;;;;;;4969896;28;20153;-67
2023/03/12 08:27:12;;;;;;;10.20;7.97;;;;;;;;;;4983854;28;20517;-67
2023/03/12 08:29:38;;;;;;;12.55;8.75;;;;;;;;;;4970938;28;20085;-67
2023/03/12 08:32:04;;;;;;;8.23;7.40;;;;;;;;;;4974289;28;20552;-67
2023/03/12 08:34:29;;;;;;;13.15;8.27;;;;;;;;;;4968915;28;20042;-67
2023/03/12 08:36:55;;;;;;;16.75;8.73;;;;;;;;;;4972189;28;20049;-67
2023/03/12 08:39:21;;;;;;;8.98;8.02;;;;;;;;;;4970212;28;20599;-67
2023/03/12 08:41:46;;;;;;;18.55;8.75;;;;;;;;;;4969793;28;20058;-67
2023/03/12 08:44:12;;;;;;;10.43;7.82;;;;;;;;;;4968272;28;20061;-67
2023/03/12 08:46:37;;;;;;;11.10;7.63;;;;;;;;;;4972664;28;20046;-67
2023/03/12 08:49:03;;;;;;;12.05;8.63;;;;;;;;;;4969691;28;20046;-67
2023/03/12 08:51:28;;;;;;;13.80;9.07;;;;;;;;;;4969070;28;20046;-67
2023/03/12 08:53:54;;;;;;;15.05;8.45;;;;;;;;;;4971081;28;20553;-67
2023/03/12 08:56:20;;;;;;;10.27;8.55;;;;;;;;;;4972243;28;20030;-67
2023/03/12 08:58:45;;;;;;;11.10;7.78;;;;;;;;;;4969506;28;20033;-67
2023/03/12 09:01:12;;;;;;;9.40;7.45;;;;;;;;;;4967171;28;20038;-66
2023/03/12 09:03:37;;;;;;;12.95;8.35;;;;;;;;;;4969945;28;20507;-67
2023/03/12 09:06:12;;;;;;;13.88;8.38;;;;;;;;;;4969678;28;20069;-67
2023/03/12 09:08:40;;;;;;;11.85;7.93;;;;;;;;;;4966482;28;20395;-67
2023/03/12 09:11:08;;;;;;;19.23;10.27;;;;;;;;;;4967980;28;20525;-67
2023/03/12 09:13:34;;;;;;;30.40;16.75;;;;;;;;;;4971660;28;20042;-66
2023/03/12 09:16:00;;;;;;;25.90;19.90;;;;;;;;;;4970436;28;20043;-66
2023/03/12 09:18:27;;;;;;;7.18;6.35;;;;;;;;;;4963361;28;20073;-66
2023/03/12 09:20:53;;;;;;;6.85;6.15;;;;;;;;;;4966402;28;20074;-66
2023/03/12 09:23:19;;;;;;;14.27;8.98;;;;;;;;;;4957974;28;20074;-67
2023/03/12 09:25:45;;;;;;;12.00;8.63;;;;;;;;;;4967514;28;20069;-67
2023/03/12 09:28:11;;;;;;;16.05;9.18;;;;;;;;;;4967494;28;20100;-66
2023/03/12 09:30:36;;;;;;;14.93;8.68;;;;;;;;;;4974339;28;20043;-66
2023/03/12 09:33:02;;;;;;;13.23;9.85;;;;;;;;;;4966119;28;20038;-66
2023/03/12 09:35:27;;;;;;;14.18;10.68;;;;;;;;;;4968704;28;20446;-67
2023/03/12 09:37:53;;;;;;;13.45;9.50;;;;;;;;;;4967769;28;20035;-66
2023/03/12 09:40:22;;;;;;;9.90;8.10;;;;;;;;;;4966471;28;20034;-65
2023/03/12 09:43:01;;;;;;;13.77;9.20;;;;;;;;;;4973437;28;20038;-66
2023/03/12 09:45:31;;;;;;;13.40;9.10;;;;;;;;;;4970652;28;20509;-67
2023/03/12 09:48:01;;;;;;;17.02;11.15;;;;;;;;;;4965396;28;20384;-66
2023/03/12 09:50:33;;;;;;;18.30;10.73;;;;;;;;;;4966091;28;20045;-66
2023/03/12 09:53:20;;;;;;;12.43;9.93;;;;;;;;;;4976895;28;20054;-66
2023/03/12 09:55:49;;;;;;;12.10;9.20;;;;;;;;;;4968068;28;20146;-67
2023/03/12 09:58:18;;;;;;;18.10;9.30;;;;;;;;;;4967686;28;20042;-67
2023/03/12 10:00:43;;;;;;;18.30;12.75;;;;;;;;;;4969642;28;20051;-67
2023/03/12 10:03:33;;;;;;;14.18;9.02;;;;;;;;;;4961778;28;20119;-67
2023/03/12 10:06:18;;;;;;;18.60;11.98;;;;;;;;;;4963958;28;20126;-67
2023/03/12 10:09:15;;;;;;;12.93;10.57;;;;;;;;;;4966091;28;20043;-67
2023/03/12 10:12:02;;;;;;;14.90;9.70;;;;;;;;;;4968698;28;20133;-67
2023/03/12 10:14:58;;;;;;;14.93;9.57;;;;;;;;;;4964803;28;20402;-67
2023/03/12 10:17:51;;;;;;;13.40;9.63;;;;;;;;;;4964650;28;20129;-67
2023/03/12 10:20:36;;;;;;;14.93;9.57;;;;;;;;;;4963255;28;20074;-66
2023/03/12 10:23:20;;;;;;;14.02;9.00;;;;;;;;;;4964349;28;20030;-67
2023/03/12 10:26:14;;;;;;;10.23;8.70;;;;;;;;;;4966265;28;20070;-67
2023/03/12 10:28:44;;;;;;;17.15;11.30;;;;;;;;;;4963636;28;20041;-67
2023/03/12 10:31:34;;;;;;;14.55;11.57;;;;;;;;;;4967102;28;20070;-67
2023/03/12 10:34:02;;;;;;;15.60;10.07;;;;;;;;;;4963598;28;20046;-67
2023/03/12 10:36:35;;;;;;;9.90;8.27;;;;;;;;;;4965718;28;20038;-67
2023/03/12 10:39:01;;;;;;;15.65;11.68;;;;;;;;;;4963988;28;20654;-67
2023/03/12 10:41:31;;;;;;;13.85;11.38;;;;;;;;;;4964953;28;20046;-67
2023/03/12 10:44:02;;;;;;;15.20;12.23;;;;;;;;;;4964517;28;20034;-67
2023/03/12 10:46:50;;;;;;;14.05;10.23;;;;;;;;;;4966692;28;20477;-67
2023/03/12 10:49:24;;;;;;;36.45;17.80;;;;;;;;;;4966648;28;20038;-67
2023/03/12 10:52:02;;;;;;;24.42;16.23;;;;;;;;;;4967908;28;20117;-65
2023/03/12 10:54:31;;;;;;;13.15;9.32;;;;;;;;;;4971100;28;20039;-67
2023/03/12 10:56:57;;;;;;;13.52;9.18;;;;;;;;;;4976123;28;20045;-67
2023/03/12 10:59:27;;;;;;;18.95;11.63;;;;;;;;;;4988533;28;20965;-67
2023/03/12 11:01:53;;;;;;;16.35;9.95;;;;;;;;;;4979846;28;20043;-66
2023/03/12 11:04:31;;;;;;;22.80;14.60;;;;;;;;;;4967316;28;20458;-67
2023/03/12 11:07:16;;;;;;;17.77;12.07;;;;;;;;;;4970147;28;20541;-67
2023/03/12 11:09:42;;;;;;;16.75;12.02;;;;;;;;;;4972839;28;20047;-67
2023/03/12 11:12:26;;;;;;;8.85;7.47;;;;;;;;;;4979232;28;20053;-66
2023/03/12 11:14:52;;;;;;;11.90;8.88;;;;;;;;;;4967676;28;20514;-67
2023/03/12 11:17:24;;;;;;;13.95;10.13;;;;;;;;;;4971000;28;20035;-67
2023/03/12 11:19:50;;;;;;;11.93;8.82;;;;;;;;;;4970038;28;20043;-67
2023/03/12 11:22:28;;;;;;;10.10;8.90;;;;;;;;;;4972377;28;20585;-66
2023/03/12 11:24:59;;;;;;;13.43;8.70;;;;;;;;;;4970830;28;20042;-67
2023/03/12 11:27:51;;;;;;;15.13;8.93;;;;;;;;;;4973450;28;20117;-67
2023/03/12 11:30:23;;;;;;;12.20;7.90;;;;;;;;;;4971629;28;20113;-67
2023/03/12 11:32:49;;;;;;;13.38;8.98;;;;;;;;;;4974103;28;20035;-66
2023/03/12 11:35:18;;;;;;;11.02;9.13;;;;;;;;;;4968637;28;20035;-66
2023/03/12 11:38:10;;;;;;;12.93;9.32;;;;;;;;;;4971710;28;20113;-67
2023/03/12 11:41:05;;;;;;;6.30;5.70;;;;;;;;;;4971246;28;20043;-67
2023/03/12 11:43:59;;;;;;;4.28;3.97;;;;;;;;;;4970156;28;20054;-67
2023/03/12 11:46:36;;;;;;;7.60;6.35;;;;;;;;;;4971276;28;20117;-67
2023/03/12 11:49:19;;;;;;;4.03;3.78;;;;;;;;;;4970944;28;20051;-67
2023/03/12 11:52:14;;;;;;;3.78;3.55;;;;;;;;;;4970345;28;20049;-67
2023/03/12 11:54:52;;;;;;;3.92;3.63;;;;;;;;;;4968902;28;20522;-66
2023/03/12 11:57:46;;;;;;;3.80;3.60;;;;;;;;;;4968298;28;20037;-67
2023/03/12 12:00:19;;;;;;;3.67;3.47;;;;;;;;;;4966880;28;20302;-67
2023/03/12 12:02:50;;;;;;;3.72;3.38;;;;;;;;;;4970542;28;20046;-67
2023/03/12 12:05:36;;;;;;;3.40;3.20;;;;;;;;;;4968754;28;20042;-67
2023/03/12 12:08:20;;;;;;;3.30;3.03;;;;;;;;;;4967772;28;20055;-67
2023/03/12 12:11:17;;;;;;;3.25;3.00;;;;;;;;;;4969032;28;20069;-67
2023/03/12 12:14:10;;;;;;;4.15;3.85;;;;;;;;;;4967739;28;20604;-67
2023/03/12 12:17:02;;;;;;;3.30;3.10;;;;;;;;;;4957346;28;20482;-65
2023/03/12 12:19:33;;;;;;;3.40;3.20;;;;;;;;;;4968219;28;20054;-65
2023/03/12 12:22:21;;;;;;;3.72;3.42;;;;;;;;;;4966973;28;20125;-67
2023/03/12 12:25:22;;;;;;;3.70;3.38;;;;;;;;;;4969887;28;20034;-67
2023/03/12 12:28:15;;;;;;;4.03;3.50;;;;;;;;;;4971412;28;20072;-67
2023/03/12 12:31:17;;;;;;;4.47;3.50;;;;;;;;;;4969262;28;20603;-65
2023/03/12 12:34:08;;;;;;;3.60;3.30;;;;;;;;;;4913123;29;20110;-65
2023/03/12 12:36:35;;;;;;;8.35;3.88;;;;;;;;;;4914101;29;20655;-67
2023/03/12 12:39:14;;;;;;;4.55;3.85;;;;;;;;;;4912312;29;20039;-67
2023/03/12 12:41:51;;;;;;;4.78;3.70;;;;;;;;;;4907328;29;20063;-67
2023/03/12 12:44:31;;;;;;;5.13;3.47;;;;;;;;;;4916213;29;20062;-64
2023/03/12 12:47:04;;;;;;;6.50;3.20;;;;;;;;;;4911261;29;20043;-67
2023/03/12 12:49:37;;;;;;;5.43;3.17;;;;;;;;;;4909318;29;20048;-67
2023/03/12 12:52:07;;;;;;;5.18;3.60;;;;;;;;;;4908698;29;20099;-66
2023/03/12 12:54:41;;;;;;;4.00;3.60;;;;;;;;;;4910225;29;20040;-66
2023/03/12 12:57:16;;;;;;;5.30;3.88;;;;;;;;;;4906829;29;20068;-66
2023/03/12 13:00:14;;;;;;;6.70;3.42;;;;;;;;;;4909656;29;20645;-66
2023/03/12 13:02:43;;;;;;;5.28;3.47;;;;;;;;;;4907987;29;20126;-66
2023/03/12 13:05:24;;;;;;;4.68;3.63;;;;;;;;;;4909197;29;20533;-67
2023/03/12 13:07:50;;;;;;;4.57;3.40;;;;;;;;;;4909075;29;20052;-66
2023/03/12 13:10:33;;;;;;;4.63;3.30;;;;;;;;;;4932108;28;20047;-66
2023/03/12 13:13:03;;;;;;;4.65;3.85;;;;;;;;;;4969224;28;20054;-67
2023/03/12 13:15:29;;;;;;;4.43;3.38;;;;;;;;;;4971144;28;20026;-66
2023/03/12 13:17:57;;;;;;;8.50;3.75;;;;;;;;;;4969899;28;20081;-66
2023/03/12 13:20:29;;;;;;;4.72;3.63;;;;;;;;;;4970863;28;20043;-66
2023/03/12 13:23:18;;;;;;;4.20;3.80;;;;;;;;;;4966204;28;20105;-66
2023/03/12 13:25:47;;;;;;;5.30;4.03;;;;;;;;;;4970825;28;20038;-67
2023/03/12 13:28:25;;;;;;;5.85;3.70;;;;;;;;;;4974921;28;20490;-66
2023/03/12 13:30:52;;;;;;;5.13;3.45;;;;;;;;;;4970353;28;20034;-66
2023/03/12 13:33:34;;;;;;;7.22;3.67;;;;;;;;;;4969313;28;20039;-66
2023/03/12 13:36:15;;;;;;;3.53;2.97;;;;;;;;;;4970175;28;20116;-66
2023/03/12 13:38:57;;;;;;;9.30;3.97;;;;;;;;;;4969421;28;20037;-66
2023/03/12 13:41:53;;;;;;;5.97;3.72;;;;;;;;;;4968937;28;20034;-66
2023/03/12 13:44:22;;;;;;;6.38;3.88;;;;;;;;;;4967817;28;20061;-66
2023/03/12 13:47:10;;;;;;;4.82;3.58;;;;;;;;;;4970676;28;20043;-66
2023/03/12 13:49:42;;;;;;;5.07;3.17;;;;;;;;;;4969009;28;20059;-66
2023/03/12 13:52:24;;;;;;;5.53;3.45;;;;;;;;;;4969194;28;20046;-66
2023/03/12 13:55:26;;;;;;;5.22;3.15;;;;;;;;;;4968714;28;20042;-66
2023/03/12 13:58:15;;;;;;;5.70;3.45;;;;;;;;;;4967830;28;20085;-67
2023/03/12 14:00:56;;;;;;;4.82;3.40;;;;;;;;;;4970309;28;20034;-67
2023/03/12 14:03:30;;;;;;;3.70;3.40;;;;;;;;;;4961066;28;20039;-67
2023/03/12 14:05:58;;;;;;;4.70;3.30;;;;;;;;;;4968583;28;20030;-67
2023/03/12 14:08:48;;;;;;;5.10;3.40;;;;;;;;;;4970260;28;20049;-66
2023/03/12 14:11:23;;;;;;;3.22;3.00;;;;;;;;;;4970013;28;20126;-67
2023/03/12 14:14:26;;;;;;;6.40;3.28;;;;;;;;;;4964619;28;20050;-67
2023/03/12 14:16:57;;;;;;;5.80;3.40;;;;;;;;;;4967101;28;20042;-67
2023/03/12 14:19:25;;;;;;;4.72;3.65;;;;;;;;;;4971246;28;20121;-67
2023/03/12 14:21:53;;;;;;;3.37;3.03;;;;;;;;;;4968956;28;20046;-67
2023/03/12 14:24:24;;;;;;;6.55;3.63;;;;;;;;;;4967509;28;20039;-67
2023/03/12 14:26:50;;;;;;;4.97;3.50;;;;;;;;;;4965564;28;20074;-66
2023/03/12 14:29:24;;;;;;;3.70;3.20;;;;;;;;;;4970669;28;20046;-66
2023/03/12 14:31:53;;;;;;;4.40;3.45;;;;;;;;;;4968854;28;21557;-66
2023/03/12 14:34:27;;;;;;;;;;;;;;;;;;4965470;28;20112;-66
2023/03/12 14:37:05;;;;;;;3.80;3.50;;;;;;;;;;4965320;28;19922;-66
2023/03/12 14:39:40;;;;;;;4.88;3.55;;;;;;;;;;4966960;28;20383;-66
2023/03/12 14:42:07;;;;;;;4.22;3.13;;;;;;;;;;4968659;28;20066;-68
2023/03/12 14:44:38;;;;;;;3.83;3.22;;;;;;;;;;4965365;28;20475;-67
2023/03/12 14:47:08;;;;;;;5.28;2.90;;;;;;;;;;4964633;28;20043;-67
2023/03/12 14:49:40;;;;;;;3.50;3.22;;;;;;;;;;4965069;28;20046;-67
2023/03/12 14:52:06;;;;;;;4.57;3.20;;;;;;;;;;4967609;28;20573;-67
2023/03/12 14:54:32;;;;;;;3.65;3.35;;;;;;;;;;4958226;28;20047;-67
2023/03/12 14:56:58;;;;;;;6.13;3.85;;;;;;;;;;4954896;28;20041;-67
2023/03/12 14:59:26;;;;;;;6.50;3.50;;;;;;;;;;4959234;28;20147;-67
2023/03/12 15:01:58;;;;;;;5.90;4.00;;;;;;;;;;4957735;28;20061;-67